• Join FlightAware (Why Join?)
  • Login
  • US Flag 
02:04PM EDT


 

Airport Tracker/Info


-or-


 

Live Flight TrackerFlight Track Log ✈ AAL667 ✈ 06-May-2013 ✈ KIND - KDFW

Flight Track Log - Related Links

Times and Time Zones

All times are in EDT time to prevent confusion due to time zone crossing. See the AAL667 flight status page for this flight to view local times or setup timezone preferences in your user account.

Time Position Orientation Groundspeed Altitude Reporting Facility
EDT Latitude Longitude Course Direction KTS MPH feet Rate Location/Type
07:32PM 39.7333 -86.2833 207° Southwest 169 194 1,400  Level Indianapolis TRACON
07:33PM 39.7667 -86.2500 38° Northeast 175 201 4,200 2,460 Climbing Indianapolis TRACON
07:34PM 39.7500 -86.2000 113° Southeast 199 229 6,400 2,040 Climbing Indianapolis TRACON
07:35PM 39.4150 -86.4463 199° South  Level FlightAware Approximate
07:36PM 39.3130 -86.4969 207° Southwest  Level FlightAware Approximate
07:36PM 39.6444 -86.2706 207° Southwest 281 323 9,700  Level Indianapolis Center
07:37PM 39.2158 -86.5618 207° Southwest  Level FlightAware Approximate
07:37PM 39.5650 -86.3253 208° Southwest 318 366 11,600  Level Indianapolis Center
07:39PM 39.4077 -86.4496 199° South  Level FlightAware Approximate
07:39PM 39.3508 -86.4725 199° South 405 466 16,400  Level Indianapolis Center
07:40PM 39.2483 -86.5419 208° Southwest 415 478 18,900 2,040 Climbing Indianapolis Center
07:41PM 39.1425 -86.6131 208° Southwest 427 491 20,600 1,680 Climbing Indianapolis Center
07:42PM 39.0333 -86.6792 205° Southwest 441 507 22,400 1,620 Climbing Indianapolis Center
07:44PM 38.7989 -86.8192 205° Southwest 467 537 25,600 1,620 Climbing Indianapolis Center
07:45PM 38.6975 -86.9297 220° Southwest 478 550 27,500 1,800 Climbing Indianapolis Center
07:46PM 38.5792 -87.0633 221° Southwest 474 545 29,400 1,560 Climbing Indianapolis Center
07:47PM 38.4953 -87.1928 230° Southwest 479 551 30,700 1,200 Climbing Indianapolis Center
07:48PM 38.4069 -87.3164 228° Southwest 481 554 31,900 1,080 Climbing Indianapolis Center
07:49PM 38.3189 -87.4408 228° Southwest 478 550 33,000 660 Climbing Indianapolis Center
07:51PM 38.2178 -87.5715 227° Southwest  Level FlightAware Approximate
07:51PM 38.1428 -87.6853 227° Southwest 469 540 34,000  Level Indianapolis Center
07:52PM 38.0539 -87.8092 228° Southwest 475 547 34,000  Level Indianapolis Center
07:53PM 37.9469 -87.9578 228° Southwest 476 548 34,000  Level Indianapolis Center
07:54PM 37.8572 -88.0814 227° Southwest 475 547 34,000  Level Indianapolis Center
07:55PM 37.7672 -88.2056 228° Southwest 478 550 34,000  Level Indianapolis Center
07:56PM 37.6758 -88.3289 227° Southwest 478 550 34,000 -60 Level Indianapolis Center
07:58PM 37.5556 -88.5022 229° Southwest 481 554 33,900 -660 Descending Memphis Center
08:00PM 37.3886 -88.7803 233° Southwest 493 567 31,900 -1,020 Descending Memphis Center
08:02PM 37.2208 -89.0572 233° Southwest 504 580 30,000 -660 Descending Memphis Center
08:03PM 37.1389 -89.1911 233° Southwest 504 580 30,000  Level Memphis Center
08:04PM 37.0589 -89.3250 233° Southwest 504 580 30,000  Level Memphis Center
08:05PM 36.9767 -89.4583 232° Southwest 494 568 30,000  Level Memphis Center
08:06PM 36.8961 -89.5917 233° Southwest 494 568 30,000  Level Memphis Center
08:07PM 36.8136 -89.7219 232° Southwest 494 568 30,000  Level Memphis Center
08:08PM 36.7328 -89.8547 233° Southwest 489 563 30,000  Level Memphis Center
08:09PM 36.6478 -89.9872 231° Southwest 489 563 30,000  Level Memphis Center
08:11PM 36.5131 -90.1810 229° Southwest  Level FlightAware Approximate
08:11PM 36.4858 -90.2433 229° Southwest 489 563 30,000  Level Memphis Center
08:13PM 36.3253 -90.4961 232° Southwest 479 551 30,000  Level Memphis Center
08:14PM 36.2439 -90.6219 231° Southwest 474 545 30,000  Level Memphis Center
08:15PM 36.1664 -90.7478 233° Southwest 474 545 30,000  Level Memphis Center
08:17PM 36.0047 -90.9933 231° Southwest 469 540 30,000  Level Memphis Center
08:18PM 35.9250 -91.1158 231° Southwest 469 540 30,000  Level Memphis Center
08:19PM 35.8469 -91.2406 232° Southwest 464 534 30,000  Level Memphis Center
08:20PM 35.7669 -91.3575 230° Southwest 464 534 30,000  Level Memphis Center
08:21PM 35.7011 -91.4664 233° Southwest 464 534 30,000  Level Memphis Center
08:22PM 35.6250 -91.5881 232° Southwest 459 528 30,000  Level Memphis Center
08:23PM 35.5444 -91.7044 230° Southwest 454 522 30,000  Level Memphis Center
08:24PM 35.4639 -91.8253 231° Southwest 454 522 30,000  Level Memphis Center
08:25PM 35.3875 -91.9411 231° Southwest 454 522 30,000 480 Level Memphis Center
08:26PM 35.3086 -92.0592 231° Southwest 454 522 31,000 1,080 Climbing Memphis Center
08:27PM 35.2300 -92.1772 231° Southwest 454 522 32,200 1,260 Climbing Memphis Center
08:28PM 35.1553 -92.2897 231° Southwest 448 516 33,600 900 Climbing Memphis Center
08:29PM 35.0825 -92.4022 232° Southwest 442 509 34,000 180 Climbing Memphis Center
08:30PM 35.0033 -92.5144 229° Southwest 437 503 34,000  Level Memphis Center
08:31PM 34.9306 -92.6242 231° Southwest 437 503 34,000  Level Memphis Center
08:32PM 34.8553 -92.7358 231° Southwest 437 503 34,000  Level Memphis Center
08:33PM 34.7822 -92.8453 231° Southwest 432 497 34,000  Level Memphis Center
08:35PM 34.6386 -93.0292 232° Southwest  Level FlightAware Approximate
08:36PM 34.5606 -93.1692 232° Southwest 421 484 34,000  Level Memphis Center
08:38PM 34.4094 -93.3961 231° Southwest 411 473 34,000  Level Fort Worth Center
08:39PM 34.3358 -93.5028 230° Southwest 411 473 34,000  Level Fort Worth Center
08:41PM 34.2578 -93.7525 249° West 397 457 34,000  Level Fort Worth Center
08:42PM 34.2217 -93.8822 251° West 404 465 34,000  Level Fort Worth Center
08:43PM 34.1856 -94.0092 251° West 404 465 34,000  Level Fort Worth Center
08:44PM 34.1514 -94.1358 252° West 404 465 34,000  Level Fort Worth Center
08:45PM 34.1131 -94.2628 250° West 404 465 34,000  Level Fort Worth Center
08:46PM 34.0722 -94.3872 248° West 409 471 34,000  Level Fort Worth Center
08:47PM 34.0314 -94.5139 249° West 409 471 34,000 -60 Level Fort Worth Center
08:49PM 33.9702 -94.7359 251° West  Level FlightAware Approximate
08:50PM 33.9058 -94.8883 251° West 414 476 33,900  Level Fort Worth Center
08:51PM 33.8667 -95.0147 250° West 414 476 32,900 -1,140 Descending Fort Worth Center
08:52PM 33.8231 -95.1433 248° West 414 476 31,700 -1,800 Descending Fort Worth Center
08:53PM 33.7775 -95.2719 247° West 414 476 29,300 -2,400 Descending Fort Worth Center
08:54PM 33.7358 -95.4078 250° West 424 488 27,000 -1,920 Descending Fort Worth Center
08:55PM 33.6919 -95.5461 249° West 437 503 25,500 -1,080 Descending Fort Worth Center
08:56PM 33.6419 -95.6869 247° West 444 511 24,900 -1,140 Descending Fort Worth Center
08:58PM 33.6012 -95.9208 258° West  Level FlightAware Approximate
08:59PM 33.4989 -96.1106 258° West 449 517 21,100  Level Fort Worth Center
09:00PM 33.4603 -96.2283 249° West 432 497 18,200 -2,580 Descending Fort Worth Center
09:01PM 33.4114 -96.3683 247° West 421 484 16,000 -1,680 Descending Fort Worth Center
09:02PM 33.3558 -96.4511 231° Southwest 381 438 14,900 -1,680 Descending Fort Worth Center
09:03PM 33.2814 -96.5411 225° Southwest 354 407 12,700 -1,320 Descending Fort Worth Center
09:05PM 33.1528 -96.6939 225° Southwest 341 392 11,000 -600 Descending Fort Worth Center
09:06PM 33.0803 -96.7811 225° Southwest 341 392 11,000  Level Fort Worth Center
09:07PM 33.0261 -96.8436 224° Southwest 324 373 11,000 -240 Level Fort Worth Center
09:08PM 32.9658 -96.9058 221° Southwest 288 331 10,600 -1,260 Descending Fort Worth Center
09:09PM 32.9011 -96.9061 180° South 248 285 8,500 -2,400 Descending Fort Worth Center
09:10PM 32.8167 -96.9167 186° South 254 292 5,600 -2,640 Descending Dallas / Fort Worth TRACON